Time;durP1;ratioP1;P1;durP2;ratioP2;P2;SDS_P1;SDS_P2;PMS_P1;PMS_P2;Temp;Humidity;BMP_temperature;BMP_pressure;BME280_temperature;BME280_humidity;BME280_pressure;Samples;Min_cycle;Max_cycle;Signal;HPM_P1;HPM_P2
2021/05/27 00:02:09;;;;;;;14.60;10.00;;;12.20;52.80;;;;;;5057074;28;20407;-77
2021/05/27 00:04:35;;;;;;;17.45;9.70;;;12.10;53.30;;;;;;5056272;28;20389;-76
2021/05/27 00:07:01;;;;;;;13.63;9.88;;;12.10;53.60;;;;;;5053215;28;20417;-76
2021/05/27 00:09:27;;;;;;;13.50;10.95;;;12.10;52.90;;;;;;5035556;28;20476;-77
2021/05/27 00:11:53;;;;;;;19.05;10.75;;;12.20;52.40;;;;;;5052291;28;20401;-76
2021/05/27 00:14:19;;;;;;;13.85;10.82;;;12.20;52.50;;;;;;5054989;28;20384;-75
2021/05/27 00:16:45;;;;;;;15.68;10.82;;;12.10;52.40;;;;;;5037679;28;20475;-75
2021/05/27 00:19:11;;;;;;;13.60;10.80;;;12.20;52.20;;;;;;5056268;28;20474;-75
2021/05/27 00:21:36;;;;;;;16.27;11.53;;;12.20;52.00;;;;;;5055438;28;20440;-75
2021/05/27 00:24:03;;;;;;;19.10;10.93;;;12.20;52.10;;;;;;5054430;28;20920;-75
2021/05/27 00:26:29;;;;;;;22.98;11.05;;;12.20;52.20;;;;;;5055446;28;20435;-76
2021/05/27 00:28:54;;;;;;;16.70;10.45;;;12.10;52.70;;;;;;5055690;28;20377;-75
2021/05/27 00:31:20;;;;;;;15.25;9.90;;;12.10;53.00;;;;;;5055844;28;20453;-77
2021/05/27 00:34:35;;;;;;;14.77;9.83;;;12.10;52.40;;;;;;5054734;28;20401;-77
2021/05/27 00:37:01;;;;;;;13.80;9.40;;;12.10;52.40;;;;;;5050292;28;20403;-75
2021/05/27 00:39:26;;;;;;;11.65;8.88;;;12.10;51.90;;;;;;5037293;28;20472;-76
2021/05/27 00:41:52;;;;;;;13.07;8.85;;;12.10;51.80;;;;;;5054101;28;20385;-76
2021/05/27 00:44:19;;;;;;;11.75;8.57;;;12.10;51.70;;;;;;5054279;28;20398;-75
2021/05/27 00:46:45;;;;;;;13.67;8.67;;;12.10;51.90;;;;;;5054080;28;20393;-75
2021/05/27 00:49:10;;;;;;;11.77;8.07;;;12.20;51.30;;;;;;5054704;28;20827;-75
2021/05/27 00:51:36;;;;;;;11.13;8.23;;;12.10;51.90;;;;;;5054170;28;20420;-74
2021/05/27 00:54:02;;;;;;;11.20;7.80;;;12.20;50.90;;;;;;5053519;28;20400;-72
2021/05/27 00:56:28;;;;;;;14.00;8.55;;;12.20;51.40;;;;;;5060008;28;20396;-73
2021/05/27 00:58:54;;;;;;;11.00;7.88;;;12.20;50.80;;;;;;5054366;28;20439;-76
2021/05/27 01:01:19;;;;;;;9.88;7.30;;;12.20;50.70;;;;;;5055519;28;20777;-75
2021/05/27 01:03:45;;;;;;;9.80;7.70;;;12.10;50.90;;;;;;5039074;28;20886;-76
2021/05/27 01:06:10;;;;;;;12.77;7.47;;;12.20;50.70;;;;;;5059469;28;20431;-78
2021/05/27 01:08:36;;;;;;;13.52;7.15;;;12.20;50.50;;;;;;5056979;28;20386;-77
2021/05/27 01:11:02;;;;;;;13.50;7.63;;;12.20;50.50;;;;;;5054881;28;20523;-77
2021/05/27 01:13:28;;;;;;;10.95;8.05;;;12.20;50.60;;;;;;5054018;28;20743;-76
2021/05/27 01:15:54;;;;;;;10.70;7.20;;;12.30;50.30;;;;;;5054354;28;20396;-76
2021/05/27 01:18:23;;;;;;;11.77;7.73;;;12.20;50.50;;;;;;5055131;28;20392;-76
2021/05/27 01:20:54;;;;;;;11.50;7.25;;;12.20;51.00;;;;;;5055478;28;20491;-76
2021/05/27 01:23:21;;;;;;;12.27;7.30;;;12.20;51.20;;;;;;5054695;28;20417;-76
2021/05/27 01:25:50;;;;;;;9.95;7.85;;;12.20;51.50;;;;;;5039175;28;20722;-76
2021/05/27 01:28:16;;;;;;;11.98;7.47;;;12.20;51.00;;;;;;5055739;28;20377;-77
2021/05/27 01:30:42;;;;;;;16.98;8.00;;;12.20;51.10;;;;;;5039332;28;20389;-77
2021/05/27 01:33:10;;;;;;;18.10;8.75;;;12.10;51.40;;;;;;5057908;28;20866;-77
2021/05/27 01:35:36;;;;;;;15.93;8.97;;;12.20;51.00;;;;;;5053798;28;20869;-76
2021/05/27 01:38:14;;;;;;;17.67;9.27;;;12.20;50.60;;;;;;5035335;28;20488;-76
2021/05/27 01:40:40;;;;;;;17.67;10.30;;;12.10;51.10;;;;;;5053422;28;20776;-76
2021/05/27 01:43:07;;;;;;;14.63;9.32;;;12.10;51.30;;;;;;5053942;28;20508;-76
2021/05/27 01:45:33;;;;;;;14.52;9.70;;;12.10;51.10;;;;;;5053254;28;20377;-76
2021/05/27 01:47:59;;;;;;;15.00;10.10;;;12.20;51.00;;;;;;5053718;28;20374;-75
2021/05/27 01:50:25;;;;;;;13.30;10.00;;;12.20;50.80;;;;;;5057241;28;20389;-75
2021/05/27 01:52:54;;;;;;;13.48;10.90;;;12.20;50.90;;;;;;5065693;28;20373;-76
2021/05/27 01:55:20;;;;;;;17.25;11.30;;;12.20;50.50;;;;;;5049811;28;20393;-75
2021/05/27 01:57:45;;;;;;;17.70;11.38;;;12.10;50.80;;;;;;5084822;28;20722;-75
2021/05/27 02:00:12;;;;;;;17.05;11.68;;;12.20;51.00;;;;;;5075594;28;20407;-77
2021/05/27 02:02:37;;;;;;;18.30;12.00;;;12.20;50.70;;;;;;5073715;28;20391;-75
2021/05/27 02:05:03;;;;;;;18.47;12.10;;;12.20;50.70;;;;;;5073358;28;20375;-75
2021/05/27 02:07:29;;;;;;;17.50;12.27;;;12.20;51.10;;;;;;5048328;28;20397;-75
2021/05/27 02:09:54;;;;;;;19.83;12.60;;;12.20;50.90;;;;;;5053587;28;20377;-76
2021/05/27 02:12:20;;;;;;;21.07;13.27;;;12.20;50.60;;;;;;5053033;28;20439;-74
2021/05/27 02:14:46;;;;;;;21.37;12.80;;;12.20;50.50;;;;;;5054312;28;20874;-75
2021/05/27 02:17:11;;;;;;;17.77;13.30;;;12.20;50.90;;;;;;5059193;28;20393;-75
2021/05/27 02:19:37;;;;;;;19.87;13.10;;;12.20;50.90;;;;;;5058772;28;20393;-76
2021/05/27 02:22:03;;;;;;;18.03;13.40;;;12.20;50.60;;;;;;5037983;28;20466;-76
2021/05/27 02:24:28;;;;;;;18.60;12.60;;;12.20;50.40;;;;;;5051706;28;20746;-74
2021/05/27 02:26:54;;;;;;;21.08;12.88;;;12.20;50.60;;;;;;5051982;28;20724;-74
2021/05/27 02:29:19;;;;;;;18.63;12.23;;;12.20;50.90;;;;;;5051928;28;20392;-74
2021/05/27 02:31:45;;;;;;;17.92;13.40;;;12.10;51.10;;;;;;5051746;28;20417;-76
2021/05/27 02:34:11;;;;;;;19.67;12.93;;;12.10;51.20;;;;;;5051793;28;20385;-74
2021/05/27 02:36:37;;;;;;;17.90;13.23;;;12.20;51.10;;;;;;5051501;28;20458;-76
2021/05/27 02:39:03;;;;;;;19.55;13.18;;;12.20;51.30;;;;;;5033257;28;20397;-74
2021/05/27 02:41:29;;;;;;;18.40;13.20;;;12.10;51.90;;;;;;5051162;28;20491;-75
2021/05/27 02:43:55;;;;;;;18.07;12.60;;;12.20;51.80;;;;;;5051573;28;20429;-75
2021/05/27 02:46:20;;;;;;;18.37;12.50;;;12.10;52.40;;;;;;5033377;28;20547;-76
2021/05/27 02:48:46;;;;;;;17.23;11.97;;;12.10;52.50;;;;;;5033839;28;20770;-76
2021/05/27 02:51:12;;;;;;;19.50;11.23;;;12.10;51.70;;;;;;5051499;28;20481;-76
2021/05/27 02:53:37;;;;;;;17.00;11.03;;;12.10;51.90;;;;;;5051452;28;20429;-75
2021/05/27 02:56:03;;;;;;;13.40;10.10;;;12.10;51.20;;;;;;5038880;28;20571;-75
2021/05/27 02:58:29;;;;;;;19.80;9.60;;;12.10;51.30;;;;;;5072241;28;20537;-75
2021/05/27 03:00:55;;;;;;;14.20;10.20;;;12.10;50.80;;;;;;5072831;28;20404;-75
2021/05/27 03:03:21;;;;;;;16.80;9.50;;;12.10;50.80;;;;;;5070846;28;20383;-76
2021/05/27 03:05:48;;;;;;;17.33;9.25;;;12.10;50.40;;;;;;5053071;28;20423;-75
2021/05/27 03:08:13;;;;;;;15.32;9.38;;;12.10;50.20;;;;;;5058667;28;20378;-76
2021/05/27 03:10:39;;;;;;;18.70;9.50;;;12.10;50.30;;;;;;5033247;28;20474;-76
2021/05/27 03:13:05;;;;;;;15.02;9.18;;;12.10;50.60;;;;;;5052790;28;20393;-75
2021/05/27 03:15:30;;;;;;;15.30;9.90;;;12.10;51.20;;;;;;5053699;28;20432;-75
2021/05/27 03:18:04;;;;;;;17.53;10.20;;;12.10;50.90;;;;;;5056764;28;20407;-75
2021/05/27 03:20:30;;;;;;;14.90;10.75;;;12.10;51.30;;;;;;5053696;28;20405;-76
2021/05/27 03:22:55;;;;;;;18.45;10.40;;;12.00;51.80;;;;;;5050885;28;20865;-77
2021/05/27 03:25:21;;;;;;;21.90;10.43;;;12.00;52.10;;;;;;5051103;28;20408;-76
2021/05/27 03:27:47;;;;;;;21.13;11.20;;;12.00;51.90;;;;;;5050851;28;20393;-77
2021/05/27 03:30:13;;;;;;;21.40;11.33;;;12.00;52.30;;;;;;5050974;28;20858;-77
2021/05/27 03:32:40;;;;;;;18.85;11.80;;;12.00;52.90;;;;;;5050130;28;20389;-77
2021/05/27 03:35:07;;;;;;;20.35;11.20;;;12.00;53.00;;;;;;5050744;28;20480;-77
2021/05/27 03:37:33;;;;;;;22.07;12.63;;;12.00;52.80;;;;;;5050495;28;20896;-77
2021/05/27 03:40:12;;;;;;;24.00;11.57;;;12.00;53.20;;;;;;5050520;28;20401;-77
2021/05/27 03:42:45;;;;;;;19.73;11.75;;;12.00;53.10;;;;;;5032940;28;20432;-77
2021/05/27 03:45:19;;;;;;;24.50;11.77;;;12.00;52.60;;;;;;5051160;28;20387;-76
2021/05/27 03:47:44;;;;;;;21.63;11.87;;;12.00;53.00;;;;;;5033154;28;20447;-76
2021/05/27 03:50:12;;;;;;;17.42;11.25;;;12.00;53.40;;;;;;5050694;28;20385;-76
2021/05/27 03:52:38;;;;;;;20.00;11.10;;;12.00;52.30;;;;;;5050163;28;20382;-76
2021/05/27 03:55:10;;;;;;;21.80;11.90;;;11.90;52.70;;;;;;5050992;28;20377;-76
2021/05/27 03:57:37;;;;;;;22.50;11.70;;;12.00;53.30;;;;;;5050750;28;20385;-75
2021/05/27 04:02:53;;;;;;;24.55;11.68;;;12.00;51.90;;;;;;5051052;28;20778;-76
2021/05/27 04:08:05;;;;;;;27.42;12.68;;;12.10;50.30;;;;;;5000989;28;20389;-74
2021/05/27 04:10:31;;;;;;;25.67;12.70;;;12.10;49.70;;;;;;5013697;28;20398;-77
2021/05/27 04:12:58;;;;;;;29.23;11.80;;;12.00;49.40;;;;;;5030649;28;20398;-75
2021/05/27 04:15:29;;;;;;;25.27;12.20;;;12.00;48.30;;;;;;5013765;28;20395;-75
2021/05/27 04:17:57;;;;;;;22.75;11.10;;;12.00;48.90;;;;;;5030991;28;20465;-77
2021/05/27 04:20:25;;;;;;;21.13;11.75;;;11.90;47.60;;;;;;5030701;28;20864;-75
2021/05/27 04:22:51;;;;;;;21.65;11.85;;;12.00;47.20;;;;;;5013432;28;20475;-76
2021/05/27 04:25:19;;;;;;;22.40;11.38;;;12.00;47.30;;;;;;5030631;28;20395;-76
2021/05/27 04:27:45;;;;;;;24.80;12.50;;;12.00;46.10;;;;;;5031102;28;20383;-75
2021/05/27 04:30:13;;;;;;;23.80;11.40;;;12.10;46.90;;;;;;5031859;28;20445;-76
2021/05/27 04:35:30;;;;;;;21.33;10.32;;;12.10;45.60;;;;;;5059019;28;20450;-78
2021/05/27 04:37:58;;;;;;;22.90;10.45;;;12.10;45.50;;;;;;5058948;28;20818;-77
2021/05/27 04:40:24;;;;;;;22.50;11.63;;;12.00;46.10;;;;;;5058131;28;20440;-77
2021/05/27 04:42:50;;;;;;;26.77;12.18;;;12.00;46.30;;;;;;5053921;28;20382;-76
2021/05/27 04:45:16;;;;;;;21.60;11.80;;;12.10;46.10;;;;;;5055117;28;20392;-77
2021/05/27 04:47:43;;;;;;;23.75;12.45;;;12.00;45.50;;;;;;5055542;28;20815;-76
2021/05/27 04:50:10;;;;;;;21.30;11.63;;;11.90;46.50;;;;;;5055754;28;20431;-77
2021/05/27 04:52:36;;;;;;;25.80;13.40;;;11.80;47.40;;;;;;5055867;28;20952;-76
2021/05/27 04:55:03;;;;;;;32.35;14.02;;;11.80;47.00;;;;;;5054087;28;20468;-77
2021/05/27 04:57:29;;;;;;;28.63;13.18;;;11.90;47.20;;;;;;5072444;28;20395;-75
2021/05/27 04:59:54;;;;;;;23.67;13.55;;;11.90;47.60;;;;;;5055434;28;20414;-76
2021/05/27 05:02:20;;;;;;;23.08;13.05;;;12.00;47.00;;;;;;5075629;28;20876;-77
2021/05/27 05:04:46;;;;;;;29.17;13.90;;;12.00;47.00;;;;;;5073306;28;20404;-75
2021/05/27 05:07:11;;;;;;;27.05;14.10;;;11.90;48.00;;;;;;5073413;28;20745;-75
2021/05/27 05:09:37;;;;;;;28.38;15.00;;;11.90;47.90;;;;;;5073736;28;20454;-75
2021/05/27 05:12:02;;;;;;;28.85;14.73;;;12.00;48.70;;;;;;5073687;28;20881;-75
2021/05/27 05:14:28;;;;;;;30.10;16.38;;;11.90;48.60;;;;;;5073507;28;20415;-76
2021/05/27 05:16:53;;;;;;;29.63;15.70;;;11.80;50.00;;;;;;5074436;28;20376;-77
2021/05/27 05:19:19;;;;;;;26.50;15.30;;;11.80;50.90;;;;;;5073499;28;20419;-76
2021/05/27 05:21:45;;;;;;;29.57;15.30;;;11.90;50.70;;;;;;5073244;28;20407;-76
2021/05/27 05:24:10;;;;;;;25.80;14.73;;;11.90;50.00;;;;;;5074112;28;20449;-77
2021/05/27 05:26:36;;;;;;;30.02;16.95;;;11.80;51.70;;;;;;5073677;28;20874;-76
2021/05/27 05:29:02;;;;;;;26.73;14.30;;;11.70;53.30;;;;;;5072549;28;20376;-76
2021/05/27 05:31:28;;;;;;;32.50;16.23;;;11.60;53.00;;;;;;5073374;28;20459;-75
2021/05/27 05:33:55;;;;;;;35.35;17.70;;;11.70;52.90;;;;;;5057152;28;20391;-76
2021/05/27 05:36:22;;;;;;;28.52;15.18;;;11.60;53.30;;;;;;5048091;28;20389;-75
2021/05/27 05:38:48;;;;;;;36.72;18.02;;;11.50;53.50;;;;;;5053370;28;20751;-75
2021/05/27 05:41:14;;;;;;;37.13;17.40;;;11.30;56.40;;;;;;5053089;28;20412;-75
2021/05/27 05:43:40;;;;;;;43.47;18.30;;;11.30;57.60;;;;;;5052313;28;20393;-75
2021/05/27 05:46:06;;;;;;;34.50;17.00;;;11.20;59.10;;;;;;5053156;28;20396;-77
2021/05/27 05:48:35;;;;;;;38.33;17.70;;;11.20;58.70;;;;;;5052625;28;20476;-73
2021/05/27 05:51:02;;;;;;;39.28;16.40;;;11.20;58.10;;;;;;5052966;28;20385;-73
2021/05/27 05:53:28;;;;;;;32.25;15.55;;;11.20;58.80;;;;;;5034220;28;20393;-74
2021/05/27 05:55:54;;;;;;;33.27;15.70;;;11.30;58.60;;;;;;5051639;28;20389;-73
2021/05/27 05:58:20;;;;;;;31.98;15.23;;;11.30;58.80;;;;;;5052128;28;20393;-72
2021/05/27 06:00:47;;;;;;;33.25;14.57;;;11.40;57.20;;;;;;5052229;28;20914;-72
2021/05/27 06:03:13;;;;;;;24.77;13.63;;;11.40;57.40;;;;;;5052333;28;20518;-73
2021/05/27 06:05:39;;;;;;;27.08;14.55;;;11.50;56.30;;;;;;5036005;28;20419;-74
2021/05/27 06:08:05;;;;;;;31.88;14.13;;;11.50;57.30;;;;;;5042652;28;20406;-72
2021/05/27 06:10:31;;;;;;;32.40;14.00;;;11.60;56.00;;;;;;5032023;28;20395;-72
2021/05/27 06:12:57;;;;;;;30.60;14.05;;;11.60;57.10;;;;;;5031721;28;20545;-72
2021/05/27 06:15:28;;;;;;;24.38;13.25;;;11.50;58.50;;;;;;5014162;28;20434;-72
2021/05/27 06:17:54;;;;;;;27.35;14.00;;;11.50;56.40;;;;;;5032233;28;20391;-72
2021/05/27 06:20:21;;;;;;;22.58;13.70;;;11.40;57.40;;;;;;5031993;28;20761;-71
2021/05/27 06:22:48;;;;;;;26.23;12.75;;;11.50;56.80;;;;;;5031808;28;20764;-72
2021/05/27 06:25:15;;;;;;;28.55;11.70;;;11.50;56.80;;;;;;5032021;28;20383;-74
2021/05/27 06:27:41;;;;;;;28.23;13.80;;;11.60;55.90;;;;;;5032206;28;20383;-74
2021/05/27 06:30:07;;;;;;;28.63;12.82;;;11.50;57.20;;;;;;5031958;28;20390;-74
2021/05/27 06:32:37;;;;;;;24.70;12.88;;;11.40;56.80;;;;;;5031761;28;20825;-74
2021/05/27 06:35:07;;;;;;;24.50;12.60;;;11.40;57.30;;;;;;5048969;28;20487;-73
2021/05/27 06:37:38;;;;;;;26.08;12.10;;;11.40;57.70;;;;;;5051648;28;20878;-73
2021/05/27 06:40:10;;;;;;;29.85;13.30;;;11.40;57.20;;;;;;5035430;28;20405;-75
2021/05/27 06:42:35;;;;;;;28.10;12.50;;;11.50;57.50;;;;;;5052693;28;20785;-73
2021/05/27 06:45:02;;;;;;;23.95;12.13;;;11.60;57.10;;;;;;5052362;28;20388;-73
2021/05/27 06:47:28;;;;;;;26.77;13.02;;;11.60;57.00;;;;;;5051246;28;20785;-73
2021/05/27 06:49:53;;;;;;;23.87;12.63;;;11.60;57.10;;;;;;5033972;28;20386;-74
2021/05/27 06:52:19;;;;;;;22.87;12.13;;;11.50;57.30;;;;;;5051253;28;20390;-73
2021/05/27 06:54:44;;;;;;;21.97;11.67;;;11.60;57.10;;;;;;5051014;28;20389;-73
2021/05/27 06:57:10;;;;;;;26.83;12.13;;;11.60;56.80;;;;;;5065988;28;20395;-73
2021/05/27 06:59:36;;;;;;;30.00;11.47;;;11.50;57.10;;;;;;5071162;28;20386;-74
2021/05/27 07:02:01;;;;;;;24.13;12.30;;;11.50;57.10;;;;;;5053223;28;20391;-73
2021/05/27 07:04:27;;;;;;;27.13;12.48;;;11.50;57.10;;;;;;5070988;28;20419;-73
2021/05/27 07:06:53;;;;;;;26.23;12.15;;;11.50;57.30;;;;;;5051189;28;20479;-73
2021/05/27 07:09:19;;;;;;;21.27;12.90;;;11.50;58.10;;;;;;5050586;28;20377;-74
2021/05/27 07:11:45;;;;;;;25.63;13.00;;;11.50;58.70;;;;;;5033788;28;20389;-72
2021/05/27 07:14:11;;;;;;;25.83;12.57;;;11.60;57.90;;;;;;5050608;28;20473;-73
2021/05/27 07:16:37;;;;;;;24.27;12.30;;;11.70;57.50;;;;;;5050766;28;20400;-72
2021/05/27 07:19:03;;;;;;;26.83;12.87;;;11.80;56.30;;;;;;5032969;28;20956;-72
2021/05/27 07:21:28;;;;;;;30.98;13.50;;;11.80;56.30;;;;;;5050670;28;20492;-72
2021/05/27 07:23:54;;;;;;;22.05;12.63;;;11.90;56.40;;;;;;5050434;28;20456;-73
2021/05/27 07:26:20;;;;;;;20.05;12.13;;;11.80;55.90;;;;;;5051064;28;20387;-73
2021/05/27 07:28:46;;;;;;;28.02;12.32;;;11.80;56.20;;;;;;5050838;28;20473;-73
2021/05/27 07:31:11;;;;;;;26.42;12.07;;;11.90;56.60;;;;;;5050841;28;20419;-72
2021/05/27 07:33:37;;;;;;;19.92;11.60;;;11.80;56.50;;;;;;5050530;28;20425;-73
2021/05/27 07:36:04;;;;;;;21.15;11.13;;;11.80;57.10;;;;;;5056417;28;20389;-73
2021/05/27 07:38:30;;;;;;;22.52;11.38;;;11.80;56.30;;;;;;5040678;28;20401;-74
2021/05/27 07:40:56;;;;;;;19.80;11.00;;;11.80;57.40;;;;;;5053681;28;20397;-74
2021/05/27 07:43:22;;;;;;;20.08;11.05;;;11.80;56.90;;;;;;5061814;23;20427;-69
2021/05/27 07:45:47;;;;;;;21.40;10.67;;;11.90;57.30;;;;;;5029604;28;20743;-69
2021/05/27 07:48:13;;;;;;;24.75;9.98;;;11.90;57.80;;;;;;5030129;28;20383;-69
2021/05/27 07:50:39;;;;;;;25.27;11.15;;;11.90;56.80;;;;;;5029883;28;20501;-69
2021/05/27 07:53:07;;;;;;;22.70;11.20;;;11.90;56.00;;;;;;5031489;28;20387;-70
2021/05/27 07:55:33;;;;;;;21.83;10.90;;;11.90;57.50;;;;;;5050749;28;20381;-69
2021/05/27 07:57:59;;;;;;;25.58;10.80;;;11.90;57.20;;;;;;5069916;28;20376;-69
2021/05/27 08:00:24;;;;;;;25.33;11.80;;;11.80;57.40;;;;;;5069725;28;20457;-69
2021/05/27 08:02:50;;;;;;;19.77;10.83;;;11.80;57.80;;;;;;5069917;28;20388;-69
2021/05/27 08:05:17;;;;;;;21.83;10.90;;;11.90;57.70;;;;;;5069908;28;20391;-70
2021/05/27 08:07:43;;;;;;;25.30;10.85;;;11.90;58.50;;;;;;5061762;28;20399;-70
2021/05/27 08:10:10;;;;;;;17.13;10.10;;;11.90;59.00;;;;;;5049650;28;20429;-69
2021/05/27 08:12:36;;;;;;;21.73;10.32;;;11.90;57.30;;;;;;5049585;28;20872;-69
2021/05/27 08:15:02;;;;;;;21.25;10.85;;;11.90;57.00;;;;;;5031995;28;20472;-69
2021/05/27 08:17:29;;;;;;;20.40;10.60;;;12.00;58.10;;;;;;5049933;28;20373;-71
2021/05/27 08:19:54;;;;;;;19.27;10.32;;;12.00;58.00;;;;;;5053041;28;20401;-70
2021/05/27 08:22:20;;;;;;;21.85;9.90;;;12.00;57.80;;;;;;5054000;28;20439;-69
2021/05/27 08:24:46;;;;;;;22.98;11.20;;;12.10;57.30;;;;;;5053972;28;20378;-69
2021/05/27 08:27:12;;;;;;;24.90;10.53;;;12.10;58.30;;;;;;5053839;28;20384;-70
2021/05/27 08:29:37;;;;;;;20.80;10.27;;;12.10;57.50;;;;;;5053817;28;20389;-71
2021/05/27 08:32:06;;;;;;;20.40;9.43;;;12.10;56.40;;;;;;5053054;28;20386;-70
2021/05/27 08:34:31;;;;;;;20.00;10.02;;;12.10;56.20;;;;;;5052960;28;20393;-71
2021/05/27 08:36:57;;;;;;;26.83;10.80;;;12.10;56.60;;;;;;5053401;28;20874;-71
2021/05/27 08:39:23;;;;;;;19.48;9.45;;;12.20;56.20;;;;;;5045390;28;20391;-73
2021/05/27 08:41:48;;;;;;;16.67;10.10;;;12.10;56.00;;;;;;5053675;28;20427;-71
2021/05/27 08:44:14;;;;;;;23.55;9.98;;;12.10;56.40;;;;;;5053041;28;20456;-71
2021/05/27 08:46:42;;;;;;;22.25;10.43;;;12.10;57.10;;;;;;5054082;28;20402;-69
2021/05/27 08:49:08;;;;;;;21.95;10.52;;;12.10;57.00;;;;;;5036070;28;20476;-70
2021/05/27 08:51:36;;;;;;;24.05;10.02;;;12.20;57.20;;;;;;5054382;28;20392;-70
2021/05/27 08:54:03;;;;;;;20.38;10.00;;;12.30;56.90;;;;;;5035771;28;21583;-70
2021/05/27 08:56:28;;;;;;;18.25;9.45;;;12.40;54.40;;;;;;5063242;28;20395;-71
2021/05/27 08:58:54;;;;;;;19.98;9.80;;;12.30;55.30;;;;;;5068605;28;20408;-70
2021/05/27 09:01:24;;;;;;;18.25;9.60;;;12.30;56.50;;;;;;5052891;28;20818;-70
2021/05/27 09:03:50;;;;;;;21.67;9.38;;;12.20;56.90;;;;;;5053031;28;20385;-71
2021/05/27 09:06:16;;;;;;;16.00;9.63;;;12.20;58.10;;;;;;5052390;28;20385;-71
2021/05/27 09:08:43;;;;;;;19.38;9.82;;;12.20;57.20;;;;;;5052944;28;20749;-70
2021/05/27 09:11:11;;;;;;;21.13;9.52;;;12.20;55.90;;;;;;5052591;28;20388;-72
2021/05/27 09:13:49;;;;;;;19.30;10.68;;;12.10;56.40;;;;;;5052233;28;20491;-70
2021/05/27 09:16:14;;;;;;;23.13;10.10;;;12.00;58.50;;;;;;5052247;28;20389;-69
2021/05/27 09:18:42;;;;;;;14.45;10.02;;;11.90;58.10;;;;;;5052728;28;20397;-70
2021/05/27 09:21:11;;;;;;;16.45;10.70;;;11.90;59.10;;;;;;5052398;28;20440;-69
2021/05/27 09:23:44;;;;;;;20.20;10.18;;;12.10;59.40;;;;;;5051648;28;20390;-70
2021/05/27 09:26:14;;;;;;;21.95;10.77;;;12.20;58.60;;;;;;5052555;28;20441;-70
2021/05/27 09:28:40;;;;;;;23.00;11.25;;;12.20;58.00;;;;;;5051858;28;20507;-69
2021/05/27 09:31:10;;;;;;;22.40;11.60;;;12.20;57.60;;;;;;5050623;28;20394;-69
2021/05/27 09:33:39;;;;;;;24.67;12.65;;;12.20;58.60;;;;;;5038751;28;20401;-70
2021/05/27 09:36:07;;;;;;;22.95;11.73;;;12.20;59.20;;;;;;5052281;28;20432;-69
2021/05/27 09:38:57;;;;;;;22.05;12.50;;;12.20;56.00;;;;;;5052457;28;20822;-70
2021/05/27 09:41:28;;;;;;;23.10;13.52;;;12.20;57.20;;;;;;5042015;28;20452;-71
2021/05/27 09:44:06;;;;;;;21.10;12.82;;;12.30;57.20;;;;;;5051141;28;20402;-69
2021/05/27 09:46:53;;;;;;;22.33;12.82;;;12.30;56.90;;;;;;5048219;28;20393;-71
2021/05/27 09:49:25;;;;;;;21.92;12.20;;;12.30;57.10;;;;;;5051902;28;20393;-70
2021/05/27 09:52:14;;;;;;;22.42;13.38;;;12.40;56.40;;;;;;5052367;28;20959;-70
2021/05/27 09:54:50;;;;;;;19.90;11.68;;;12.50;56.10;;;;;;5051295;28;20865;-70
2021/05/27 09:57:20;;;;;;;22.15;12.73;;;12.70;56.10;;;;;;5054506;28;20914;-70
2021/05/27 09:59:46;;;;;;;24.52;13.52;;;12.80;55.10;;;;;;5046357;28;20410;-69
2021/05/27 10:02:16;;;;;;;19.80;11.45;;;13.10;56.10;;;;;;5050452;28;20739;-70
2021/05/27 10:04:57;;;;;;;23.65;12.27;;;13.30;52.20;;;;;;5032889;28;20852;-70
2021/05/27 10:07:52;;;;;;;17.57;11.13;;;13.40;51.90;;;;;;5050817;28;20389;-69
2021/05/27 10:10:20;;;;;;;19.75;12.10;;;13.40;53.20;;;;;;5050971;28;20472;-70
2021/05/27 10:12:53;;;;;;;22.58;13.32;;;13.40;53.10;;;;;;5050730;28;20399;-70
2021/05/27 10:15:23;;;;;;;22.90;11.90;;;13.40;53.50;;;;;;5051375;28;20858;-73
2021/05/27 10:17:51;;;;;;;24.10;12.43;;;13.40;52.40;;;;;;5052944;28;20763;-71
2021/05/27 10:20:19;;;;;;;19.92;12.57;;;13.20;51.20;;;;;;5051422;28;20766;-70
2021/05/27 10:22:45;;;;;;;26.40;14.70;;;13.00;53.40;;;;;;5050901;28;20455;-70
2021/05/27 10:25:13;;;;;;;25.60;14.30;;;13.10;53.70;;;;;;5051150;28;20421;-70
2021/05/27 10:27:46;;;;;;;27.67;14.57;;;13.10;53.90;;;;;;5051036;28;20501;-70
2021/05/27 10:30:14;;;;;;;21.33;13.70;;;13.10;52.50;;;;;;5050947;28;20853;-70
2021/05/27 10:32:46;;;;;;;24.50;14.93;;;12.90;51.60;;;;;;5031424;28;20430;-69
2021/05/27 10:35:12;;;;;;;26.65;15.55;;;12.70;53.70;;;;;;5049864;28;20719;-70
2021/05/27 10:37:38;;;;;;;25.48;15.05;;;12.70;55.40;;;;;;5051259;28;20394;-70
2021/05/27 10:40:29;;;;;;;25.42;13.80;;;12.70;56.10;;;;;;5051180;28;20412;-70
2021/05/27 10:42:55;;;;;;;26.40;14.63;;;12.30;57.50;;;;;;5045345;28;20388;-70
2021/05/27 10:45:21;;;;;;;23.90;14.10;;;11.90;62.20;;;;;;5050831;28;20393;-70
2021/05/27 10:48:18;;;;;;;28.07;15.77;;;11.60;64.80;;;;;;5050468;28;20781;-70
2021/05/27 10:50:56;;;;;;;31.55;19.63;;;11.50;68.50;;;;;;5034420;28;20906;-69
2021/05/27 10:53:37;;;;;;;35.03;18.73;;;11.60;70.60;;;;;;5050262;28;20385;-69
2021/05/27 10:56:28;;;;;;;26.23;14.93;;;11.60;68.70;;;;;;5050800;28;20385;-70
2021/05/27 10:58:55;;;;;;;33.97;19.30;;;11.60;67.60;;;;;;5039542;28;20820;-70
2021/05/27 11:01:30;;;;;;;31.40;18.10;;;11.60;69.70;;;;;;5032147;28;20399;-69
2021/05/27 11:03:57;;;;;;;31.03;17.90;;;11.70;68.80;;;;;;5049695;28;20420;-68
2021/05/27 11:06:35;;;;;;;35.20;20.17;;;12.00;67.10;;;;;;5048981;28;20395;-68
2021/05/27 11:09:07;;;;;;;30.30;18.30;;;12.10;67.00;;;;;;5050425;28;20692;-68
2021/05/27 11:12:08;;;;;;;36.88;18.25;;;12.30;65.70;;;;;;5049998;28;20420;-69
2021/05/27 11:14:44;;;;;;;27.13;17.98;;;12.50;63.60;;;;;;5046976;28;20413;-68
2021/05/27 11:17:15;;;;;;;25.92;15.00;;;12.80;62.50;;;;;;5050202;28;20390;-68
2021/05/27 11:22:28;;;;;;;23.75;15.40;;;12.90;58.00;;;;;;5030764;28;20393;-68
2021/05/27 11:25:12;;;;;;;28.55;15.10;;;12.90;55.40;;;;;;5043943;28;20535;-69
2021/05/27 11:27:39;;;;;;;24.53;15.53;;;12.90;57.10;;;;;;5045723;28;20779;-72
2021/05/27 11:30:27;;;;;;;26.37;15.50;;;12.80;56.80;;;;;;5050064;28;20819;-70
2021/05/27 11:33:16;;;;;;;26.45;15.30;;;12.80;57.30;;;;;;5045338;28;20397;-71
2021/05/27 11:35:47;;;;;;;32.80;17.80;;;12.90;57.60;;;;;;5039080;28;20877;-70
2021/05/27 11:38:22;;;;;;;29.60;15.85;;;13.00;56.50;;;;;;5049747;28;20420;-71
2021/05/27 11:40:53;;;;;;;30.63;16.33;;;12.80;55.30;;;;;;5051650;28;20477;-70
2021/05/27 11:43:37;;;;;;;32.45;16.30;;;12.80;56.60;;;;;;5049530;28;20477;-69
2021/05/27 11:46:11;;;;;;;28.45;17.63;;;12.80;55.40;;;;;;5045280;28;20385;-71
2021/05/27 11:48:43;;;;;;;30.50;17.60;;;13.00;56.00;;;;;;5049702;28;20447;-71
2021/05/27 11:51:12;;;;;;;30.65;16.80;;;13.20;55.20;;;;;;5050277;28;20401;-71
2021/05/27 11:54:00;;;;;;;36.67;19.95;;;13.30;52.20;;;;;;5048722;28;20396;-70
2021/05/27 11:56:40;;;;;;;37.28;19.90;;;13.40;55.40;;;;;;5058451;28;20394;-70
2021/05/27 11:59:18;;;;;;;33.63;18.92;;;13.60;53.70;;;;;;5052849;28;20401;-70
2021/05/27 12:01:54;;;;;;;27.57;18.37;;;13.70;51.70;;;;;;5050399;28;20408;-70
2021/05/27 12:04:21;;;;;;;32.78;18.30;;;13.60;52.70;;;;;;5049112;28;20484;-70
2021/05/27 12:06:50;;;;;;;31.73;17.75;;;13.60;52.40;;;;;;5030379;28;20394;-71
2021/05/27 12:09:34;;;;;;;27.13;16.47;;;13.70;50.80;;;;;;5049256;28;20476;-72
2021/05/27 12:12:19;;;;;;;23.27;14.73;;;13.80;49.20;;;;;;5049883;28;20411;-70
2021/05/27 12:14:52;;;;;;;25.33;15.90;;;13.50;49.60;;;;;;5050044;28;20762;-70
2021/05/27 12:17:30;;;;;;;32.75;18.92;;;13.50;48.40;;;;;;5049382;28;20458;-70
2021/05/27 12:20:12;;;;;;;30.52;18.63;;;13.80;50.30;;;;;;5050032;28;20384;-70
2021/05/27 12:22:51;;;;;;;27.85;16.50;;;13.90;48.80;;;;;;5029851;28;20399;-69
2021/05/27 12:25:19;;;;;;;35.90;20.40;;;13.80;48.10;;;;;;5030974;28;20781;-70
2021/05/27 12:27:50;;;;;;;32.47;17.30;;;14.30;49.50;;;;;;5049892;28;20385;-70
2021/05/27 12:30:21;;;;;;;34.05;17.55;;;14.20;46.80;;;;;;5050116;28;20416;-70
2021/05/27 12:32:48;;;;;;;31.27;18.35;;;15.00;44.20;;;;;;5050048;28;20392;-70
2021/05/27 12:35:38;;;;;;;29.45;17.23;;;15.60;38.90;;;;;;5050202;28;20653;-71
2021/05/27 12:38:07;;;;;;;29.25;16.65;;;15.80;36.50;;;;;;5037862;28;20953;-71
2021/05/27 12:40:40;;;;;;;32.83;18.40;;;15.70;36.60;;;;;;5039482;28;21027;-69
2021/05/27 12:43:39;;;;;;;29.00;17.40;;;15.10;39.00;;;;;;5047017;28;20401;-69
2021/05/27 12:46:11;;;;;;;29.60;17.63;;;14.40;40.40;;;;;;5049052;28;20436;-70
2021/05/27 12:48:53;;;;;;;27.77;17.48;;;14.20;40.70;;;;;;5049131;28;20749;-70